Time;durP1;ratioP1;P1;durP2;ratioP2;P2;SDS_P1;SDS_P2;PMS_P1;PMS_P2;Temp;Humidity;BMP_temperature;BMP_pressure;BME280_temperature;BME280_humidity;BME280_pressure;Samples;Min_cycle;Max_cycle;Signal;HPM_P1;HPM_P2
2023/01/20 04:01:01;;;;;;;;;;;0.70;99.90;;;;;;5878802;23;20000;-68
2023/01/20 04:03:29;;;;;;;;;;;0.70;99.90;;;;;;4937101;29;19982;-69
2023/01/20 04:05:57;;;;;;;;;;;0.70;99.90;;;;;;4929402;29;19927;-72
2023/01/20 04:08:26;;;;;;;;;;;0.70;99.90;;;;;;4925592;29;19973;-72
2023/01/20 04:10:52;;;;;;;;;;;0.80;99.90;;;;;;4928360;29;19966;-73
2023/01/20 04:13:19;;;;;;;;;;;0.80;99.90;;;;;;4934318;29;20022;-72
2023/01/20 04:15:46;;;;;;;;;;;0.80;99.90;;;;;;4930050;29;19968;-73
2023/01/20 04:18:15;;;;;;;;;;;0.80;99.90;;;;;;4929208;29;19982;-72
2023/01/20 04:20:43;;;;;;;;;;;0.80;99.90;;;;;;4928453;29;19930;-71
2023/01/20 04:23:14;;;;;;;;;;;0.80;99.90;;;;;;4929264;29;19927;-72
2023/01/20 04:25:40;;;;;;;;;;;0.70;99.90;;;;;;4930542;29;19998;-73
2023/01/20 04:28:07;;;;;;;;;;;0.70;99.90;;;;;;4929348;29;19926;-73
2023/01/20 04:30:34;;;;;;;;;;;0.70;99.90;;;;;;4929170;29;19931;-72
2023/01/20 04:33:00;;;;;;;;;;;0.70;99.90;;;;;;4927113;29;19974;-73
2023/01/20 04:35:29;;;;;;;;;;;0.80;99.90;;;;;;4928189;29;20286;-72
2023/01/20 04:37:55;;;;;;;;;;;0.80;99.90;;;;;;4929234;29;19982;-72
2023/01/20 04:40:22;;;;;;;;;;;0.80;99.90;;;;;;4928295;29;19982;-73
2023/01/20 04:42:49;;;;;;;;;;;0.80;99.90;;;;;;4944395;28;19935;-71
2023/01/20 04:45:16;;;;;;;;;;;0.80;99.90;;;;;;4925042;29;19927;-72
2023/01/20 04:47:43;;;;;;;;;;;0.80;99.90;;;;;;4929953;29;19926;-73
2023/01/20 04:50:10;;;;;;;;;;;0.90;99.90;;;;;;4927378;29;19979;-70
2023/01/20 04:52:39;;;;;;;;;;;0.90;99.90;;;;;;4942175;29;19927;-71
2023/01/20 04:55:06;;;;;;;;;;;0.90;99.90;;;;;;4924249;29;20351;-74
2023/01/20 04:57:33;;;;;;;;;;;0.90;99.90;;;;;;4926457;29;20463;-72
2023/01/20 04:59:59;;;;;;;;;;;0.90;99.90;;;;;;4929242;29;20025;-73
2023/01/20 05:02:26;;;;;;;;;;;1.00;99.90;;;;;;4931298;29;19994;-73
2023/01/20 05:04:53;;;;;;;;;;;1.00;99.90;;;;;;4923991;29;19927;-72
2023/01/20 05:07:20;;;;;;;;;;;1.00;99.90;;;;;;4929049;29;20445;-73
2023/01/20 05:09:48;;;;;;;;;;;1.10;99.90;;;;;;4926678;29;19938;-70
2023/01/20 05:12:15;;;;;;;;;;;1.10;99.90;;;;;;4928661;29;19935;-73
2023/01/20 05:14:42;;;;;;;;;;;1.10;99.90;;;;;;4928379;29;19958;-72
2023/01/20 05:17:08;;;;;;;;;;;1.20;99.90;;;;;;4941753;29;19982;-72
2023/01/20 05:19:35;;;;;;;;;;;1.10;99.90;;;;;;4926028;29;19926;-73
2023/01/20 05:22:02;;;;;;;;;;;1.10;99.90;;;;;;4927434;29;20294;-72
2023/01/20 05:24:29;;;;;;;;;;;1.10;99.90;;;;;;4924512;29;19938;-73
2023/01/20 05:26:59;;;;;;;;;;;1.10;99.90;;;;;;4926984;29;19927;-70
2023/01/20 05:29:26;;;;;;;;;;;1.10;99.90;;;;;;4926649;29;19982;-71
2023/01/20 05:31:53;;;;;;;;;;;1.10;99.90;;;;;;4929427;29;20017;-74
2023/01/20 05:34:20;;;;;;;;;;;1.10;99.90;;;;;;4926977;29;20398;-77
2023/01/20 05:36:46;;;;;;;;;;;1.10;99.90;;;;;;4925067;29;19927;-72
2023/01/20 05:39:13;;;;;;;;;;;1.10;99.90;;;;;;4927969;29;19926;-75
2023/01/20 05:41:40;;;;;;;;;;;1.10;99.90;;;;;;4929088;29;19931;-75
2023/01/20 05:44:08;;;;;;;;;;;1.10;99.90;;;;;;4926589;29;19931;-76
2023/01/20 05:46:35;;;;;;;;;;;1.10;99.90;;;;;;4933698;29;20029;-73
2023/01/20 05:49:02;;;;;;;;;;;1.10;99.90;;;;;;4927798;29;20279;-74
2023/01/20 05:51:29;;;;;;;;;;;1.10;99.90;;;;;;4925705;29;20425;-74
2023/01/20 05:53:56;;;;;;;;;;;1.10;99.90;;;;;;4942615;29;19927;-74
2023/01/20 05:56:22;;;;;;;;;;;1.10;99.90;;;;;;4928660;29;20370;-75
2023/01/20 05:58:49;;;;;;;;;;;1.10;99.90;;;;;;4928522;29;19934;-73
2023/01/20 06:01:18;;;;;;;;;;;1.10;99.90;;;;;;4927778;29;19931;-74
2023/01/20 06:03:44;;;;;;;;;;;1.00;99.90;;;;;;4925148;29;19977;-73
2023/01/20 06:06:13;;;;;;;;;;;0.90;99.90;;;;;;4939646;28;20365;-74
2023/01/20 06:08:39;;;;;;;;;;;0.90;99.90;;;;;;4926024;29;19982;-75
2023/01/20 06:11:06;;;;;;;;;;;0.90;99.90;;;;;;4929616;29;19931;-75
2023/01/20 06:13:34;;;;;;;;;;;0.80;99.90;;;;;;4933116;29;20370;-76
2023/01/20 06:16:01;;;;;;;;;;;0.90;99.90;;;;;;4928354;29;20025;-77
2023/01/20 06:18:30;;;;;;;;;;;0.90;99.90;;;;;;4932622;29;19935;-76
2023/01/20 06:20:56;;;;;;;;;;;0.90;99.90;;;;;;4929966;29;19931;-75
2023/01/20 06:23:23;;;;;;;;;;;0.90;99.90;;;;;;4931848;29;19926;-74
2023/01/20 06:25:57;;;;;;;;;;;0.90;99.90;;;;;;4929079;29;20410;-74
2023/01/20 06:28:24;;;;;;;;;;;0.90;99.90;;;;;;4930992;29;19974;-75
2023/01/20 06:30:51;;;;;;;;;;;0.90;99.90;;;;;;4925899;29;19975;-75
2023/01/20 06:33:17;;;;;;;;;;;1.00;99.90;;;;;;4928553;29;19927;-75
2023/01/20 06:35:45;;;;;;;;;;;0.90;99.90;;;;;;4930292;29;19931;-74
2023/01/20 06:38:12;;;;;;;;;;;0.90;99.90;;;;;;4941374;29;19930;-72
2023/01/20 06:40:39;;;;;;;;;;;0.90;99.90;;;;;;4927406;29;20449;-74
2023/01/20 06:43:06;;;;;;;;;;;0.90;99.90;;;;;;4936995;29;20358;-74
2023/01/20 06:45:32;;;;;;;;;;;0.90;99.90;;;;;;4928660;29;19927;-74
2023/01/20 06:47:59;;;;;;;;;;;0.90;99.90;;;;;;4928321;29;20437;-75
2023/01/20 06:50:26;;;;;;;;;;;0.80;99.90;;;;;;4929152;29;19927;-74
2023/01/20 06:53:10;;;;;;;;;;;0.80;99.90;;;;;;4893466;29;20547;-75
2023/01/20 06:55:37;;;;;;;;;;;0.80;99.90;;;;;;4930846;29;19935;-75
2023/01/20 06:58:03;;;;;;;;;;;0.80;99.90;;;;;;4941850;29;19990;-74
2023/01/20 07:00:30;;;;;;;;;;;0.80;99.90;;;;;;4926751;29;20477;-76
2023/01/20 07:02:57;;;;;;;;;;;0.70;99.90;;;;;;4942415;29;19927;-73
2023/01/20 07:05:23;;;;;;;;;;;0.60;99.90;;;;;;4930327;29;19978;-75
2023/01/20 07:07:50;;;;;;;;;;;0.50;99.90;;;;;;4932151;29;19938;-74
2023/01/20 07:10:18;;;;;;;;;;;0.50;99.90;;;;;;4929511;29;19930;-75
2023/01/20 07:12:45;;;;;;;;;;;0.50;99.90;;;;;;4930470;29;19935;-75
2023/01/20 07:15:12;;;;;;;;;;;0.50;99.90;;;;;;4928942;29;19934;-75
2023/01/20 07:17:39;;;;;;;;;;;0.50;99.90;;;;;;4928832;29;19974;-75
2023/01/20 07:20:06;;;;;;;;;;;0.40;99.90;;;;;;4937185;29;19927;-76
2023/01/20 07:22:32;;;;;;;;;;;0.40;99.90;;;;;;4924094;29;19931;-76
2023/01/20 07:24:59;;;;;;;;;;;0.30;99.90;;;;;;4924495;29;19950;-74
2023/01/20 07:27:27;;;;;;;;;;;0.30;99.90;;;;;;4926674;29;19930;-76
2023/01/20 07:29:54;;;;;;;;;;;0.20;99.90;;;;;;4925197;29;19928;-74
2023/01/20 07:32:21;;;;;;;;;;;0.20;99.90;;;;;;4925893;29;19931;-75
2023/01/20 07:34:48;;;;;;;;;;;0.20;99.90;;;;;;4923580;29;19927;-76
2023/01/20 07:37:14;;;;;;;;;;;0.10;99.90;;;;;;4925856;29;19931;-76
2023/01/20 07:39:41;;;;;;;;;;;0.10;99.90;;;;;;4928002;29;19931;-76
2023/01/20 07:42:08;;;;;;;;;;;0.00;99.90;;;;;;4921753;29;19927;-75
2023/01/20 07:44:37;;;;;;;;;;;0.00;99.90;;;;;;4926875;29;19959;-75
2023/01/20 07:47:04;;;;;;;;;;;0.10;99.90;;;;;;4925374;29;19954;-76
2023/01/20 07:49:31;;;;;;;;;;;0.20;99.90;;;;;;4924082;29;19935;-75
2023/01/20 07:51:57;;;;;;;;;;;0.40;99.90;;;;;;4925913;29;20359;-75
2023/01/20 07:54:24;;;;;;;;;;;0.50;99.90;;;;;;4928668;29;19965;-76
2023/01/20 07:56:51;;;;;;;;;;;0.60;99.90;;;;;;4924898;29;20398;-75
2023/01/20 07:59:18;;;;;;;;;;;0.60;99.90;;;;;;4923435;29;20350;-76
2023/01/20 08:01:46;;;;;;;;;;;0.70;99.90;;;;;;4927555;29;19930;-76
2023/01/20 08:04:13;;;;;;;;;;;0.70;99.90;;;;;;4927925;29;19983;-74
2023/01/20 08:06:39;;;;;;;;;;;0.70;99.90;;;;;;4925409;29;19928;-75
2023/01/20 08:09:10;;;;;;;;;;;0.80;99.90;;;;;;4931121;29;19949;-75
2023/01/20 08:11:38;;;;;;;;;;;0.80;99.90;;;;;;4932928;29;19974;-76
2023/01/20 08:14:04;;;;;;;;;;;0.80;99.90;;;;;;4931819;29;20433;-75
2023/01/20 08:16:31;;;;;;;;;;;0.80;99.90;;;;;;4927142;29;20401;-75
2023/01/20 08:18:59;;;;;;;;;;;0.80;99.90;;;;;;4932919;29;19927;-75
2023/01/20 08:21:27;;;;;;;;;;;0.80;99.90;;;;;;4930098;29;20382;-76
2023/01/20 08:23:54;;;;;;;;;;;0.80;99.90;;;;;;4925286;29;19974;-76
2023/01/20 08:26:23;;;;;;;;;;;0.80;99.90;;;;;;4926510;29;19927;-76
2023/01/20 08:28:50;;;;;;;;;;;0.90;99.90;;;;;;4942511;29;20460;-74
2023/01/20 08:31:18;;;;;;;;;;;1.00;99.90;;;;;;4930612;29;19931;-75
2023/01/20 08:33:45;;;;;;;;;;;1.00;99.90;;;;;;4931998;29;19927;-75
2023/01/20 08:36:15;;;;;;;;;;;0.90;99.90;;;;;;4931744;29;19926;-73
2023/01/20 08:38:42;;;;;;;;;;;1.10;99.90;;;;;;4927407;29;19987;-74
2023/01/20 08:41:09;;;;;;;;;;;1.10;99.90;;;;;;4931511;29;19982;-75
2023/01/20 08:43:36;;;;;;;;;;;1.10;99.90;;;;;;4925565;29;19927;-75
2023/01/20 08:46:04;;;;;;;;;;;1.10;99.90;;;;;;4930611;29;20287;-76
2023/01/20 08:48:30;;;;;;;;;;;1.10;99.90;;;;;;4929818;29;20386;-76
2023/01/20 08:50:57;;;;;;;;;;;1.10;99.90;;;;;;4930511;29;20472;-75
2023/01/20 08:56:01;;;;;;;;;;;1.20;99.90;;;;;;4875246;29;19968;-70
2023/01/20 08:58:28;;;;;;;;;;;1.30;99.90;;;;;;4905242;29;19931;-68
2023/01/20 09:00:55;;;;;;;;;;;1.40;99.90;;;;;;4875236;29;20464;-69
2023/01/20 09:03:22;;;;;;;;;;;1.50;99.90;;;;;;4894034;29;19932;-69
2023/01/20 09:05:49;;;;;;;;;;;1.60;99.90;;;;;;4905414;29;19932;-70
2023/01/20 09:08:17;;;;;;;;;;;1.60;99.90;;;;;;4903120;29;19952;-67
2023/01/20 09:10:44;;;;;;;;;;;1.60;99.90;;;;;;4875551;29;19940;-69
2023/01/20 09:13:12;;;;;;;;;;;1.60;99.90;;;;;;4873930;29;19935;-68
2023/01/20 09:15:39;;;;;;;;;;;1.50;99.90;;;;;;4873108;29;19931;-69
2023/01/20 09:18:05;;;;;;;;;;;1.60;99.90;;;;;;4904478;29;19928;-68
2023/01/20 09:20:32;;;;;;;;;;;1.60;99.90;;;;;;4904820;29;20000;-68
2023/01/20 09:23:01;;;;;;;;;;;1.60;99.90;;;;;;4901506;29;19932;-69
2023/01/20 09:25:28;;;;;;;;;;;1.50;99.90;;;;;;4874864;29;19983;-69
2023/01/20 09:27:54;;;;;;;;;;;1.50;99.90;;;;;;4901795;29;20356;-69
2023/01/20 09:30:23;;;;;;;;;;;1.50;99.90;;;;;;4870648;29;19935;-69
2023/01/20 09:32:51;;;;;;;;;;;1.50;99.90;;;;;;4878069;29;19976;-69
2023/01/20 09:35:19;;;;;;;;;;;1.60;99.90;;;;;;4905467;29;19928;-70
2023/01/20 09:46:18;;;;;;;;;;;1.70;99.90;;;;;;4892370;29;19924;-69
2023/01/20 09:54:23;;;;;;;;;;;1.70;99.90;;;;;;4898581;29;19928;-69
2023/01/20 09:56:52;;;;;;;;;;;1.70;99.90;;;;;;4874840;29;20030;-69
2023/01/20 09:59:22;;;;;;;;;;;1.60;99.90;;;;;;4873330;29;20022;-69
2023/01/20 10:01:52;;;;;;;;;;;1.70;99.90;;;;;;4875867;29;20028;-71
2023/01/20 10:04:20;;;;;;;;;;;1.70;99.90;;;;;;4877051;29;20319;-71
2023/01/20 10:06:48;;;;;;;;;;;1.70;99.90;;;;;;4877333;29;20018;-69
2023/01/20 10:09:20;;;;;;;;;;;1.70;99.90;;;;;;4875803;29;19979;-69
2023/01/20 10:11:48;;;;;;;;;;;1.70;99.90;;;;;;4892004;29;19934;-69
2023/01/20 10:14:18;;;;;;;;;;;1.60;99.90;;;;;;4892228;29;19939;-69
2023/01/20 10:16:48;;;;;;;;;;;1.60;99.90;;;;;;4892348;29;20023;-70
2023/01/20 10:19:18;;;;;;;;;;;1.60;99.90;;;;;;4875044;29;19990;-69
2023/01/20 10:21:49;;;;;;;;;;;1.60;99.90;;;;;;4878339;29;19959;-70
2023/01/20 10:24:18;;;;;;;;;;;1.60;99.90;;;;;;4875911;29;19984;-70
2023/01/20 10:26:49;;;;;;;;;;;1.50;99.90;;;;;;4904423;29;19934;-69
2023/01/20 10:29:18;;;;;;;;;;;1.40;99.90;;;;;;4873463;29;19928;-69
2023/01/20 10:31:49;;;;;;;;;;;1.40;99.90;;;;;;4905524;29;19976;-69
2023/01/20 10:34:19;;;;;;;;;;;1.40;99.90;;;;;;4904324;29;19928;-69
2023/01/20 10:36:49;;;;;;;;;;;1.20;99.90;;;;;;4903736;29;19927;-69
2023/01/20 10:39:23;;;;;;;;;;;1.10;99.90;;;;;;4875577;29;20130;-67
2023/01/20 10:41:52;;;;;;;;;;;0.90;99.90;;;;;;4886371;29;19932;-69
2023/01/20 10:44:19;;;;;;;;;;;0.80;99.90;;;;;;4868036;29;19965;-69
2023/01/20 10:46:54;;;;;;;;;;;0.90;99.90;;;;;;4871806;29;20383;-71
2023/01/20 10:49:30;;;;;;;;;;;0.90;99.90;;;;;;4869775;29;19928;-69
2023/01/20 10:52:02;;;;;;;;;;;0.80;99.90;;;;;;4890197;29;19932;-68
2023/01/20 10:54:34;;;;;;;;;;;0.80;99.90;;;;;;4900922;29;20014;-69
2023/01/20 10:57:02;;;;;;;;;;;0.80;99.90;;;;;;4889746;29;20309;-69
2023/01/20 10:59:31;;;;;;;;;;;0.80;99.90;;;;;;4902083;29;20400;-71
2023/01/20 11:02:00;;;;;;;;;;;0.80;99.90;;;;;;4889489;29;20345;-68
2023/01/20 11:04:30;;;;;;;;;;;0.80;99.90;;;;;;4872782;29;19927;-68
2023/01/20 11:06:59;;;;;;;;;;;0.80;99.90;;;;;;4871216;29;19932;-69
2023/01/20 11:09:29;;;;;;;;;;;0.80;99.90;;;;;;4870098;29;19928;-69
2023/01/20 11:11:57;;;;;;;;;;;0.80;99.90;;;;;;4884877;29;20015;-69
2023/01/20 11:14:24;;;;;;;;;;;0.90;99.90;;;;;;4884274;29;20423;-69
2023/01/20 11:16:52;;;;;;;;;;;0.90;99.90;;;;;;4898262;29;19931;-68
2023/01/20 11:19:19;;;;;;;;;;;0.90;99.90;;;;;;4869821;29;19931;-69
2023/01/20 11:21:48;;;;;;;;;;;1.00;99.90;;;;;;4870405;29;19938;-70
2023/01/20 11:24:39;;;;;;;;;;;1.00;99.90;;;;;;4898386;29;19936;-69
2023/01/20 11:27:06;;;;;;;;;;;1.00;99.90;;;;;;4854481;29;19951;-69
2023/01/20 11:29:36;;;;;;;;;;;1.00;99.90;;;;;;4900355;29;19938;-68
2023/01/20 11:32:03;;;;;;;;;;;1.00;99.90;;;;;;4889732;29;19993;-68
2023/01/20 11:34:31;;;;;;;;;;;1.00;99.90;;;;;;4899760;29;19928;-69
2023/01/20 11:37:12;;;;;;;;;;;1.10;99.90;;;;;;4875884;29;19928;-69
2023/01/20 11:39:44;;;;;;;;;;;1.10;99.90;;;;;;4875722;29;20364;-69
2023/01/20 11:42:14;;;;;;;;;;;1.10;99.90;;;;;;4872212;29;20348;-69
2023/01/20 11:44:44;;;;;;;;;;;1.20;99.90;;;;;;4872191;29;19928;-69
2023/01/20 11:47:25;;;;;;;;;;;1.20;99.90;;;;;;4890572;29;20318;-68
2023/01/20 11:50:16;;;;;;;;;;;1.10;99.90;;;;;;4897233;29;20407;-70
2023/01/20 11:52:44;;;;;;;;;;;1.10;99.90;;;;;;4889080;29;19985;-70
2023/01/20 11:55:15;;;;;;;;;;;1.10;99.90;;;;;;4905461;29;19928;-70
2023/01/20 11:57:44;;;;;;;;;;;1.10;99.90;;;;;;4875691;29;20352;-69
2023/01/20 12:00:26;;;;;;;;;;;1.10;99.90;;;;;;4868674;29;19971;-69
2023/01/20 12:02:56;;;;;;;;;;;1.10;99.90;;;;;;4868530;29;19928;-71
2023/01/20 12:05:25;;;;;;;;;;;1.10;99.90;;;;;;4878557;29;20385;-71
2023/01/20 12:07:52;;;;;;;;;;;1.10;99.90;;;;;;4899768;29;20324;-69
2023/01/20 12:10:22;;;;;;;;;;;1.10;99.90;;;;;;4903542;29;19932;-69
2023/01/20 12:12:51;;;;;;;;;;;1.00;99.90;;;;;;4904717;29;19928;-71
2023/01/20 12:15:19;;;;;;;;;;;1.00;99.90;;;;;;4871643;29;19980;-69
2023/01/20 12:17:50;;;;;;;;;;;1.00;99.90;;;;;;4876506;29;19992;-69
2023/01/20 12:20:22;;;;;;;;;;;1.00;99.90;;;;;;4875345;29;19928;-69
2023/01/20 12:22:54;;;;;;;;;;;1.00;99.90;;;;;;4875920;29;20388;-69
2023/01/20 12:25:25;;;;;;;;;;;1.00;99.90;;;;;;4887567;29;19928;-69
2023/01/20 12:27:55;;;;;;;;;;;1.00;99.90;;;;;;4906556;29;19928;-68
2023/01/20 12:30:40;;;;;;;;;;;1.00;99.90;;;;;;4893468;29;19928;-69
2023/01/20 12:33:11;;;;;;;;;;;1.10;99.90;;;;;;4877531;29;19936;-71
2023/01/20 12:35:41;;;;;;;;;;;1.10;99.90;;;;;;4909807;29;19988;-69
2023/01/20 12:38:08;;;;;;;;;;;1.10;99.90;;;;;;4877246;29;19940;-67
2023/01/20 12:40:40;;;;;;;;;;;1.20;99.90;;;;;;4878269;29;19936;-67
2023/01/20 12:43:16;;;;;;;;;;;1.20;99.90;;;;;;4877206;29;19976;-68
2023/01/20 12:45:53;;;;;;;;;;;1.30;99.90;;;;;;4876819;29;19928;-70
2023/01/20 12:48:35;;;;;;;;;;;1.20;99.90;;;;;;4893687;29;19931;-69
2023/01/20 12:51:11;;;;;;;;;;;1.20;99.90;;;;;;4891075;29;19982;-69
2023/01/20 12:53:54;;;;;;;;;;;1.10;99.90;;;;;;4877917;29;19983;-71
2023/01/20 12:56:26;;;;;;;;;;;1.10;99.90;;;;;;4908978;29;19928;-69
2023/01/20 12:58:57;;;;;;;;;;;1.10;99.90;;;;;;4874051;29;19928;-70
2023/01/20 13:01:31;;;;;;;;;;;1.10;99.90;;;;;;4893639;29;19931;-69
2023/01/20 13:04:16;;;;;;;;;;;1.10;99.90;;;;;;4909973;29;19928;-69
2023/01/20 13:06:54;;;;;;;;;;;1.10;99.90;;;;;;4877924;29;19927;-69
2023/01/20 13:09:32;;;;;;;;;;;1.00;99.90;;;;;;4876925;29;20403;-69
2023/01/20 13:12:09;;;;;;;;;;;1.00;99.90;;;;;;4891195;29;20312;-71
2023/01/20 13:14:40;;;;;;;;;;;1.00;99.90;;;;;;4876133;29;19927;-69
2023/01/20 13:17:12;;;;;;;;;;;1.00;99.90;;;;;;4877976;29;19935;-69
2023/01/20 13:19:41;;;;;;;;;;;1.00;99.90;;;;;;4886601;29;19928;-70
2023/01/20 13:22:09;;;;;;;;;;;1.00;99.90;;;;;;4876348;29;19928;-69
2023/01/20 13:24:36;;;;;;;;;;;1.10;99.90;;;;;;4877766;29;19928;-69
2023/01/20 13:27:05;;;;;;;;;;;1.10;99.90;;;;;;4893096;29;19932;-70
2023/01/20 13:29:42;;;;;;;;;;;1.20;99.90;;;;;;4877088;29;19932;-70
2023/01/20 13:32:30;;;;;;;;;;;1.10;99.90;;;;;;4892290;29;20023;-69
2023/01/20 13:34:57;;;;;;;;;;;1.10;99.90;;;;;;4889922;29;19928;-69
2023/01/20 13:37:26;;;;;;;;;;;1.10;99.90;;;;;;4874194;29;19928;-71
2023/01/20 13:39:54;;;;;;;;;;;1.10;99.90;;;;;;4905981;29;19927;-69
2023/01/20 13:42:29;;;;;;;;;;;1.10;99.90;;;;;;4876667;29;19963;-69
2023/01/20 13:45:14;;;;;;;;;;;1.10;99.90;;;;;;4889378;29;19932;-70
2023/01/20 13:47:52;;;;;;;;;;;1.20;99.90;;;;;;4905509;29;20292;-69
2023/01/20 13:50:23;;;;;;;;;;;1.10;99.90;;;;;;4876120;29;19931;-67
2023/01/20 13:53:04;;;;;;;;;;;1.10;99.90;;;;;;4908626;29;19928;-69
2023/01/20 13:55:49;;;;;;;;;;;1.20;99.90;;;;;;4876157;29;19928;-71
2023/01/20 13:58:18;;;;;;;;;;;1.20;99.90;;;;;;4872881;29;20380;-68
2023/01/20 14:00:45;;;;;;;;;;;1.20;99.90;;;;;;4871021;29;20281;-69
2023/01/20 14:03:17;;;;;;;;;;;1.20;99.90;;;;;;4873703;29;20399;-70
2023/01/20 14:05:48;;;;;;;;;;;1.10;99.90;;;;;;4872436;29;20464;-70
2023/01/20 14:08:15;;;;;;;;;;;1.10;99.90;;;;;;4873129;29;19943;-69
2023/01/20 14:10:42;;;;;;;;;;;1.10;99.90;;;;;;4870321;29;19935;-72
2023/01/20 14:13:09;;;;;;;;;;;1.10;99.90;;;;;;4872897;29;19931;-71
2023/01/20 14:15:39;;;;;;;;;;;1.10;99.90;;;;;;4876307;29;19931;-71
2023/01/20 14:18:13;;;;;;;;;;;1.20;99.90;;;;;;4892544;29;20119;-71
2023/01/20 14:20:41;;;;;;;;;;;1.20;99.90;;;;;;4872601;29;19927;-74
2023/01/20 14:23:23;;;;;;;;;;;1.20;99.90;;;;;;4877162;29;19927;-70
2023/01/20 14:25:56;;;;;;;;;;;1.30;99.90;;;;;;4907606;29;20023;-70
2023/01/20 14:28:23;;;;;;;;;;;1.30;99.90;;;;;;4877138;29;19928;-71
2023/01/20 14:31:04;;;;;;;;;;;1.40;99.90;;;;;;4905960;29;19932;-71
2023/01/20 14:33:31;;;;;;;;;;;1.40;99.90;;;;;;4873748;29;20344;-71
2023/01/20 14:35:58;;;;;;;;;;;1.40;99.90;;;;;;4869041;29;19951;-70
2023/01/20 14:38:24;;;;;;;;;;;1.40;99.90;;;;;;4907651;29;19928;-70
2023/01/20 14:40:51;;;;;;;;;;;1.40;99.90;;;;;;4904385;29;19932;-70
2023/01/20 14:43:19;;;;;;;;;;;1.40;99.90;;;;;;4907607;29;19931;-71
2023/01/20 14:45:47;;;;;;;;;;;1.40;99.90;;;;;;4871020;29;20465;-71
2023/01/20 14:48:15;;;;;;;;;;;1.50;99.90;;;;;;4872888;29;19932;-71
2023/01/20 14:50:42;;;;;;;;;;;1.40;99.90;;;;;;4876005;29;20395;-71
2023/01/20 14:53:12;;;;;;;;;;;1.50;99.90;;;;;;4872295;29;19963;-70
2023/01/20 14:55:40;;;;;;;;;;;1.50;99.90;;;;;;4901844;29;19970;-71
2023/01/20 14:58:07;;;;;;;;;;;1.40;99.90;;;;;;4867438;29;20031;-71
2023/01/20 15:00:34;;;;;;;;;;;1.40;99.90;;;;;;4870250;29;19971;-69
2023/01/20 15:03:04;;;;;;;;;;;1.40;99.90;;;;;;4899921;29;20023;-70
2023/01/20 15:05:33;;;;;;;;;;;1.40;99.90;;;;;;4872760;29;19935;-71
2023/01/20 15:08:04;;;;;;;;;;;1.30;99.90;;;;;;4875762;29;19976;-69
2023/01/20 15:10:33;;;;;;;;;;;1.30;99.90;;;;;;4868934;29;20395;-70
2023/01/20 15:13:00;;;;;;;;;;;1.30;99.90;;;;;;4876863;29;19928;-69
2023/01/20 15:15:28;;;;;;;;;;;1.30;99.90;;;;;;4885803;29;19981;-70
2023/01/20 15:18:05;;;;;;;;;;;1.30;99.90;;;;;;4891817;29;19929;-70
2023/01/20 15:20:34;;;;;;;;;;;1.30;99.90;;;;;;4873573;29;20025;-70
2023/01/20 15:23:01;;;;;;;;;;;1.20;99.90;;;;;;4888575;29;19927;-70
2023/01/20 15:25:28;;;;;;;;;;;1.20;99.90;;;;;;4877354;29;20348;-70
2023/01/20 15:27:55;;;;;;;;;;;1.20;99.90;;;;;;4876448;29;19928;-70
2023/01/20 15:30:26;;;;;;;;;;;1.20;99.90;;;;;;4875670;29;20280;-70
2023/01/20 15:32:53;;;;;;;;;;;1.20;99.90;;;;;;4896612;29;19931;-70
2023/01/20 15:35:21;;;;;;;;;;;1.10;99.90;;;;;;4876217;29;19928;-70
2023/01/20 15:37:50;;;;;;;;;;;1.10;99.90;;;;;;4872730;29;19935;-70
2023/01/20 15:40:18;;;;;;;;;;;1.10;99.90;;;;;;4868557;29;20508;-71
2023/01/20 15:42:44;;;;;;;;;;;1.10;99.90;;;;;;4901862;29;20033;-71
2023/01/20 15:45:13;;;;;;;;;;;1.10;99.90;;;;;;4870691;29;19928;-70
2023/01/20 15:47:39;;;;;;;;;;;1.10;99.90;;;;;;4903168;29;19928;-70
2023/01/20 15:50:10;;;;;;;;;;;1.10;99.90;;;;;;4873661;29;19931;-70
2023/01/20 15:52:37;;;;;;;;;;;1.10;99.90;;;;;;4901792;29;19932;-69
2023/01/20 15:55:05;;;;;;;;;;;1.00;99.90;;;;;;4872224;29;20008;-69
2023/01/20 15:57:32;;;;;;;;;;;1.00;99.90;;;;;;4897387;29;19992;-71
2023/01/20 15:59:59;;;;;;;;;;;1.00;99.90;;;;;;4888263;29;19985;-70
2023/01/20 16:02:26;;;;;;;;;;;1.00;99.90;;;;;;4902668;29;19927;-70
2023/01/20 16:04:52;;;;;;;;;;;1.00;99.90;;;;;;4871876;29;20349;-71
2023/01/20 16:07:20;;;;;;;;;;;1.00;99.90;;;;;;4908381;29;19932;-71
2023/01/20 16:09:47;;;;;;;;;;;1.00;99.90;;;;;;4874613;29;19944;-70
2023/01/20 16:12:16;;;;;;;;;;;1.00;99.90;;;;;;4866444;29;20059;-69
2023/01/20 16:14:43;;;;;;;;;;;1.00;99.90;;;;;;4892154;29;19944;-68
2023/01/20 16:17:13;;;;;;;;;;;0.90;99.90;;;;;;4875456;29;20341;-69
2023/01/20 16:19:40;;;;;;;;;;;0.90;99.90;;;;;;4886839;29;20014;-70
2023/01/20 16:22:07;;;;;;;;;;;0.90;99.90;;;;;;4907898;29;19932;-69
2023/01/20 16:24:34;;;;;;;;;;;0.90;99.90;;;;;;4891977;29;19932;-70
2023/01/20 16:27:02;;;;;;;;;;;0.90;99.90;;;;;;4907519;29;19932;-69
2023/01/20 16:29:30;;;;;;;;;;;0.90;99.90;;;;;;4896413;29;19940;-70
2023/01/20 16:31:57;;;;;;;;;;;0.80;99.90;;;;;;4876671;29;19935;-68
2023/01/20 16:34:24;;;;;;;;;;;0.80;99.90;;;;;;4871083;29;20448;-67
2023/01/20 16:36:51;;;;;;;;;;;0.80;99.90;;;;;;4876556;29;19953;-69
2023/01/20 16:39:18;;;;;;;;;;;0.80;99.90;;;;;;4873386;29;19968;-68
2023/01/20 16:41:47;;;;;;;;;;;0.70;99.90;;;;;;4873822;29;20480;-67
2023/01/20 16:44:13;;;;;;;;;;;0.70;99.90;;;;;;4890102;29;19929;-68
2023/01/20 16:46:41;;;;;;;;;;;0.80;99.90;;;;;;4902433;29;19935;-68
2023/01/20 16:49:08;;;;;;;;;;;0.80;99.90;;;;;;4871786;29;19971;-68
2023/01/20 16:51:35;;;;;;;;;;;0.80;99.90;;;;;;4873735;29;19927;-69
2023/01/20 16:54:02;;;;;;;;;;;0.90;99.90;;;;;;4894016;29;19927;-68
2023/01/20 16:56:29;;;;;;;;;;;0.90;99.90;;;;;;4872755;29;19980;-67
2023/01/20 16:58:57;;;;;;;;;;;0.90;99.90;;;;;;4872404;29;19943;-69
2023/01/20 17:01:25;;;;;;;;;;;0.90;99.90;;;;;;4872323;29;19935;-69
2023/01/20 17:03:54;;;;;;;;;;;0.90;99.90;;;;;;4875061;29;19992;-69
2023/01/20 17:06:22;;;;;;;;;;;0.90;99.90;;;;;;4894969;29;19932;-68
2023/01/20 17:08:49;;;;;;;;;;;0.90;99.90;;;;;;4876504;29;19950;-69
2023/01/20 17:11:16;;;;;;;;;;;0.90;99.90;;;;;;4871944;29;20439;-72
2023/01/20 17:13:43;;;;;;;;;;;0.90;99.90;;;;;;4899367;29;20311;-68
2023/01/20 17:16:12;;;;;;;;;;;0.90;99.90;;;;;;4878185;29;19931;-69
2023/01/20 17:18:43;;;;;;;;;;;0.90;99.90;;;;;;4901140;29;19928;-64
2023/01/20 17:21:12;;;;;;;;;;;0.90;99.90;;;;;;4878088;29;19935;-82
2023/01/20 17:23:39;;;;;;;;;;;0.90;99.90;;;;;;4872890;29;19932;-73
2023/01/20 17:26:06;;;;;;;;;;;0.90;99.90;;;;;;4901534;29;19932;-74
2023/01/20 17:28:33;;;;;;;;;;;0.90;99.90;;;;;;4899971;29;19928;-72
2023/01/20 17:31:00;;;;;;;;;;;0.80;99.90;;;;;;4873600;29;19932;-71
2023/01/20 17:33:27;;;;;;;;;;;0.80;99.90;;;;;;4875523;29;19931;-71
2023/01/20 17:35:57;;;;;;;;;;;0.80;99.90;;;;;;4904558;29;19984;-70
2023/01/20 17:38:27;;;;;;;;;;;0.90;99.90;;;;;;4874428;29;20430;-69
2023/01/20 17:40:53;;;;;;;;;;;0.90;99.90;;;;;;4889781;29;19927;-76
2023/01/20 17:43:20;;;;;;;;;;;0.90;99.90;;;;;;4889589;29;19980;-73
2023/01/20 17:45:47;;;;;;;;;;;0.90;99.90;;;;;;4873564;29;19936;-69
2023/01/20 17:48:13;;;;;;;;;;;0.90;99.90;;;;;;4904386;29;20352;-70
2023/01/20 17:50:40;;;;;;;;;;;0.80;99.90;;;;;;4874807;29;19927;-67
2023/01/20 17:53:07;;;;;;;;;;;0.70;99.90;;;;;;4877351;29;20013;-67
2023/01/20 17:55:35;;;;;;;;;;;0.70;99.90;;;;;;4877491;29;19928;-68
2023/01/20 17:58:02;;;;;;;;;;;0.60;99.90;;;;;;4893132;29;19952;-68
2023/01/20 18:00:29;;;;;;;;;;;0.60;99.90;;;;;;4891693;29;19988;-68
2023/01/20 18:02:56;;;;;;;;;;;0.60;99.90;;;;;;4877561;29;19936;-68
2023/01/20 18:05:22;;;;;;;;;;;0.60;99.90;;;;;;4890308;29;19928;-70
2023/01/20 18:07:49;;;;;;;;;;;0.60;99.90;;;;;;4877545;29;19932;-68
2023/01/20 18:10:16;;;;;;;;;;;0.60;99.90;;;;;;4893388;29;19946;-70
2023/01/20 18:12:45;;;;;;;;;;;0.60;99.90;;;;;;4903285;29;19928;-69
2023/01/20 18:15:11;;;;;;;;;;;0.60;99.90;;;;;;4890277;29;19935;-69
2023/01/20 18:17:42;;;;;;;;;;;0.60;99.90;;;;;;4872667;29;20055;-69
2023/01/20 18:20:09;;;;;;;;;;;0.50;99.90;;;;;;4873374;29;20430;-69
2023/01/20 18:22:36;;;;;;;;;;;0.50;99.90;;;;;;4901583;29;19932;-69
2023/01/20 18:25:03;;;;;;;;;;;0.40;99.90;;;;;;4892634;29;19931;-71
2023/01/20 18:27:30;;;;;;;;;;;0.40;99.90;;;;;;4875367;29;19940;-69
2023/01/20 18:29:58;;;;;;;;;;;0.30;99.90;;;;;;4871953;29;20404;-69
2023/01/20 18:32:25;;;;;;;;;;;0.30;99.90;;;;;;4903532;29;19932;-69
2023/01/20 18:34:52;;;;;;;;;;;0.20;99.90;;;;;;4866474;29;19928;-70
2023/01/20 18:37:18;;;;;;;;;;;0.20;99.90;;;;;;4903028;29;19928;-69
2023/01/20 18:39:45;;;;;;;;;;;0.20;99.90;;;;;;4872211;29;19927;-69
2023/01/20 18:42:12;;;;;;;;;;;0.10;99.90;;;;;;4892458;29;19939;-70
2023/01/20 18:44:39;;;;;;;;;;;0.00;99.90;;;;;;4867327;29;19976;-69
2023/01/20 18:47:07;;;;;;;;;;;0.00;99.90;;;;;;4890173;29;20391;-69
2023/01/20 18:49:34;;;;;;;;;;;-0.10;99.90;;;;;;4903922;29;19928;-71
2023/01/20 18:52:00;;;;;;;;;;;-0.20;99.90;;;;;;4892250;29;19938;-71
2023/01/20 18:54:31;;;;;;;;;;;-0.20;99.90;;;;;;4876606;29;19947;-68
2023/01/20 18:56:58;;;;;;;;;;;-0.30;99.90;;;;;;4876759;29;19963;-68